Time;durP1;ratioP1;P1;durP2;ratioP2;P2;SDS_P1;SDS_P2;PMS_P1;PMS_P2;Temp;Humidity;BMP_temperature;BMP_pressure;BME280_temperature;BME280_humidity;BME280_pressure;Samples;Min_cycle;Max_cycle;Signal;HPM_P1;HPM_P2
2022/09/25 00:01:14;;;;;;;38.25;28.13;;;;;;;14.72;100.00;100259.19;4995089;28;20022;-86
2022/09/25 00:03:40;;;;;;;40.58;28.83;;;;;;;14.80;100.00;100255.56;4995975;28;20065;-87
2022/09/25 00:06:13;;;;;;;39.10;29.10;;;;;;;14.70;100.00;100261.25;4978153;28;20034;-87
2022/09/25 00:08:39;;;;;;;39.63;29.25;;;;;;;14.64;100.00;100259.38;4995174;28;20053;-87
2022/09/25 00:11:19;;;;;;;38.85;30.02;;;;;;;14.72;100.00;100261.88;4978259;28;20042;-86
2022/09/25 00:13:46;;;;;;;42.88;31.58;;;;;;;14.69;100.00;100259.59;4995175;28;20034;-87
2022/09/25 00:16:15;;;;;;;43.08;32.08;;;;;;;14.62;100.00;100261.38;4995392;28;20035;-88
2022/09/25 00:21:30;;;;;;;46.40;35.65;;;;;;;14.71;100.00;100248.75;4995403;28;20030;-87
2022/09/25 00:24:00;;;;;;;48.25;35.58;;;;;;;14.84;100.00;100244.31;4994364;28;20038;-88
2022/09/25 00:26:28;;;;;;;43.72;32.33;;;;;;;14.87;100.00;100251.09;4977851;28;20030;-89
2022/09/25 00:28:54;;;;;;;43.63;32.67;;;;;;;14.79;100.00;100246.72;4977725;28;20034;-91
2022/09/25 00:31:23;;;;;;;37.55;28.50;;;;;;;14.90;100.00;100243.53;4995149;28;20040;-89
2022/09/25 00:33:53;;;;;;;34.30;25.70;;;;;;;14.79;100.00;100251.25;4995133;28;20069;-87
2022/09/25 00:36:19;;;;;;;34.40;27.05;;;;;;;14.68;100.00;100249.13;4995248;28;20049;-89
2022/09/25 00:38:47;;;;;;;39.90;27.35;;;;;;;14.64;100.00;100240.69;4976980;28;20042;-86
2022/09/25 00:41:15;;;;;;;38.72;27.17;;;;;;;14.65;100.00;100239.66;4994600;28;20042;-87
2022/09/25 00:43:47;;;;;;;34.20;24.60;;;;;;;14.62;100.00;100229.38;4994474;28;20387;-88
2022/09/25 00:46:40;;;;;;;41.15;26.48;;;;;;;14.57;100.00;100239.81;4994685;28;20069;-89
2022/09/25 00:49:14;;;;;;;34.25;25.90;;;;;;;14.74;100.00;100230.50;4977362;28;20064;-88
2022/09/25 00:51:54;;;;;;;37.83;26.35;;;;;;;14.70;100.00;100231.91;4995048;28;20514;-88
2022/09/25 00:54:28;;;;;;;36.58;26.10;;;;;;;14.69;100.00;100230.25;4994938;28;20117;-88
2022/09/25 00:56:57;;;;;;;32.35;25.95;;;;;;;14.77;100.00;100230.09;4977439;28;20038;-87
2022/09/25 00:59:28;;;;;;;34.20;25.77;;;;;;;14.65;100.00;100228.19;4977526;28;20029;-85
2022/09/25 01:01:54;;;;;;;33.13;26.10;;;;;;;14.60;100.00;100233.28;5008954;28;20030;-87
2022/09/25 01:04:21;;;;;;;38.97;26.35;;;;;;;14.63;100.00;100231.03;5015247;28;20018;-84
2022/09/25 01:06:48;;;;;;;35.58;27.85;;;;;;;14.59;100.00;100224.44;4977236;28;20038;-89
2022/09/25 01:09:14;;;;;;;37.13;29.88;;;;;;;14.70;100.00;100225.75;4994338;28;20038;-89
2022/09/25 01:11:40;;;;;;;46.30;32.70;;;;;;;14.62;100.00;100224.03;4994288;28;20034;-87
2022/09/25 01:14:15;;;;;;;45.30;32.58;;;;;;;14.69;100.00;100218.75;5005999;28;20034;-89
2022/09/25 01:16:49;;;;;;;39.17;30.05;;;;;;;14.66;100.00;100214.63;5011866;28;20065;-87
2022/09/25 01:19:30;;;;;;;39.15;31.20;;;;;;;14.57;100.00;100202.47;5014060;28;20042;-87
2022/09/25 01:22:19;;;;;;;46.33;32.85;;;;;;;14.52;100.00;100202.22;5017327;28;20057;-89
2022/09/25 01:25:10;;;;;;;43.03;32.60;;;;;;;14.48;100.00;100198.34;5016615;28;20085;-89
2022/09/25 01:27:40;;;;;;;43.13;32.05;;;;;;;14.48;100.00;100198.34;4996254;28;20041;-86
2022/09/25 01:30:17;;;;;;;45.55;33.50;;;;;;;14.51;100.00;100197.94;4963252;28;20116;-89
2022/09/25 01:33:09;;;;;;;43.45;33.35;;;;;;;14.46;100.00;100203.84;4995438;28;20097;-89
2022/09/25 01:35:48;;;;;;;46.67;35.22;;;;;;;14.43;100.00;100206.06;4997549;28;20027;-87
2022/09/25 01:38:31;;;;;;;47.90;36.03;;;;;;;14.43;100.00;100208.75;4999851;28;20399;-88
2022/09/25 01:41:27;;;;;;;47.70;35.25;;;;;;;14.41;100.00;100206.28;4983809;28;20041;-88
2022/09/25 01:44:01;;;;;;;46.45;35.60;;;;;;;14.41;100.00;100200.13;4981578;28;20042;-88
2022/09/25 01:46:29;;;;;;;49.17;35.85;;;;;;;14.40;100.00;100198.47;4998704;28;20138;-88
2022/09/25 01:49:00;;;;;;;51.60;36.78;;;;;;;14.39;100.00;100202.97;4980993;28;20050;-87
2022/09/25 01:51:44;;;;;;;52.15;37.85;;;;;;;14.40;100.00;100193.13;4980544;28;20062;-87
2022/09/25 01:54:20;;;;;;;48.25;37.17;;;;;;;14.34;100.00;100194.75;4997591;28;20121;-86
2022/09/25 01:56:49;;;;;;;55.15;38.20;;;;;;;14.30;100.00;100195.28;4997662;28;20081;-89
2022/09/25 01:59:26;;;;;;;51.60;38.60;;;;;;;14.30;100.00;100192.63;4997311;28;20373;-88
2022/09/25 02:01:54;;;;;;;55.90;40.05;;;;;;;14.28;100.00;100198.16;4998079;28;20034;-88
2022/09/25 02:04:25;;;;;;;57.95;40.75;;;;;;;14.31;100.00;100194.28;4997509;28;20034;-87
2022/09/25 02:06:54;;;;;;;55.75;40.20;;;;;;;14.39;100.00;100194.16;4997273;28;20026;-89
2022/09/25 02:10:00;;;;;;;51.38;37.08;;;;;;;14.39;100.00;100192.31;4997737;28;20038;-87
2022/09/25 02:12:33;;;;;;;52.65;38.10;;;;;;;14.39;100.00;100180.81;4918474;29;20067;-89
2022/09/25 02:15:12;;;;;;;51.75;37.22;;;;;;;14.38;100.00;100168.53;4918064;29;20052;-88
2022/09/25 02:20:35;;;;;;;44.67;30.80;;;;;;;14.37;100.00;100165.03;4918669;29;20115;-87
2022/09/25 02:26:28;;;;;;;38.58;30.80;;;;;;;14.35;100.00;100152.91;4961799;28;20046;-87
2022/09/25 02:28:55;;;;;;;39.47;29.40;;;;;;;14.32;100.00;100153.25;4980000;28;20057;-86
2022/09/25 02:31:28;;;;;;;37.85;29.17;;;;;;;14.31;100.00;100144.44;4996697;28;20027;-87
2022/09/25 02:33:54;;;;;;;37.75;29.20;;;;;;;14.36;100.00;100149.22;4996543;28;20043;-91
2022/09/25 02:36:22;;;;;;;37.95;28.52;;;;;;;14.51;100.00;100147.28;4996854;28;20042;-85
2022/09/25 02:38:50;;;;;;;37.60;29.17;;;;;;;14.47;100.00;100141.50;4995120;28;20483;-88
2022/09/25 02:41:45;;;;;;;40.70;28.77;;;;;;;14.47;100.00;100146.00;4996539;28;20061;-86
2022/09/25 02:44:30;;;;;;;33.50;26.20;;;;;;;14.49;100.00;100141.28;4996697;28;20069;-87
2022/09/25 02:47:02;;;;;;;31.80;24.30;;;;;;;14.51;100.00;100141.94;4995988;28;20030;-88
2022/09/25 02:49:43;;;;;;;24.10;18.17;;;;;;;14.54;100.00;100144.22;4997111;28;20038;-86
2022/09/25 02:52:15;;;;;;;31.55;24.38;;;;;;;14.59;100.00;100136.44;4996437;28;20403;-87
2022/09/25 02:55:02;;;;;;;31.48;23.20;;;;;;;14.56;100.00;100142.16;4996774;28;20034;-88
2022/09/25 02:57:49;;;;;;;27.92;22.20;;;;;;;14.49;100.00;100150.13;4996611;28;20034;-86
2022/09/25 03:00:15;;;;;;;31.33;22.85;;;;;;;14.42;100.00;100148.44;4999626;28;20121;-88
2022/09/25 03:02:42;;;;;;;31.85;23.25;;;;;;;14.36;100.00;100146.53;4998933;28;20023;-88
2022/09/25 03:05:12;;;;;;;28.65;22.67;;;;;;;14.33;100.00;100150.44;4996621;28;20129;-87
2022/09/25 03:10:24;;;;;;;30.75;23.52;;;;;;;14.24;100.00;100159.56;4998605;28;20050;-88
2022/09/25 03:12:49;;;;;;;31.33;23.00;;;;;;;14.23;100.00;100165.91;4999386;28;20172;-87
2022/09/25 03:15:15;;;;;;;30.20;23.40;;;;;;;14.28;100.00;100168.00;4999045;28;20069;-87
2022/09/25 03:17:42;;;;;;;30.73;23.05;;;;;;;14.31;100.00;100172.94;4996263;28;20065;-88
2022/09/25 03:20:08;;;;;;;29.92;21.67;;;;;;;14.25;100.00;100158.53;4996236;28;20373;-89
2022/09/25 03:22:35;;;;;;;30.65;22.17;;;;;;;14.21;100.00;100149.31;4996512;28;20026;-87
2022/09/25 03:25:00;;;;;;;29.35;21.38;;;;;;;14.29;100.00;100150.97;4979307;28;20038;-88
2022/09/25 03:27:28;;;;;;;29.63;21.60;;;;;;;14.30;100.00;100141.97;4996713;28;20565;-88
2022/09/25 03:29:55;;;;;;;30.60;20.98;;;;;;;14.28;100.00;100138.69;4996150;28;20039;-86
2022/09/25 03:32:22;;;;;;;26.75;21.25;;;;;;;14.29;100.00;100138.47;4994881;28;20484;-89
2022/09/25 03:34:48;;;;;;;28.88;20.58;;;;;;;14.26;100.00;100138.03;4996029;28;20030;-87
2022/09/25 03:37:13;;;;;;;26.92;20.23;;;;;;;14.32;100.00;100146.06;4995664;28;20084;-87
2022/09/25 03:39:39;;;;;;;27.35;20.95;;;;;;;14.33;100.00;100138.91;4996097;28;20377;-87
2022/09/25 03:42:05;;;;;;;29.10;22.00;;;;;;;14.28;100.00;100138.69;4996064;28;20030;-87
2022/09/25 03:44:33;;;;;;;29.65;22.15;;;;;;;14.28;100.00;100133.34;4994664;28;20571;-86
2022/09/25 03:46:58;;;;;;;30.67;22.30;;;;;;;14.42;100.00;100137.75;5007513;28;20080;-87
2022/09/25 03:49:24;;;;;;;28.83;22.67;;;;;;;14.43;100.00;100139.41;5016255;28;20031;-88
2022/09/25 03:51:49;;;;;;;32.70;21.70;;;;;;;14.44;100.00;100141.06;4995043;28;20188;-87
2022/09/25 03:54:15;;;;;;;26.55;21.02;;;;;;;14.48;100.00;100143.13;4996272;28;20377;-88
2022/09/25 03:56:41;;;;;;;31.20;21.83;;;;;;;14.37;100.00;100145.53;4995098;28;20077;-87
2022/09/25 03:59:07;;;;;;;34.38;23.02;;;;;;;14.29;100.00;100142.97;4993973;28;20339;-86
2022/09/25 04:01:33;;;;;;;32.63;24.48;;;;;;;14.19;100.00;100147.81;4996714;28;20045;-86
2022/09/25 04:04:00;;;;;;;36.22;23.88;;;;;;;14.14;100.00;100139.59;4994776;28;20555;-89
2022/09/25 04:06:25;;;;;;;32.33;24.15;;;;;;;14.19;100.00;100153.16;4995134;28;20400;-86
2022/09/25 04:08:52;;;;;;;36.92;24.42;;;;;;;14.20;100.00;100150.31;4995174;28;20114;-88
2022/09/25 04:11:19;;;;;;;33.45;24.65;;;;;;;14.15;100.00;100143.94;4995128;28;20058;-85
2022/09/25 04:13:45;;;;;;;32.80;24.00;;;;;;;14.17;100.00;100144.53;4993641;28;20126;-87
2022/09/25 04:16:15;;;;;;;34.97;25.50;;;;;;;14.17;100.00;100147.22;4995040;28;20121;-87
2022/09/25 04:18:41;;;;;;;34.15;24.67;;;;;;;14.27;100.00;100134.38;4983688;28;20450;-87
2022/09/25 04:21:10;;;;;;;31.20;23.80;;;;;;;14.34;100.00;100135.25;4994168;28;20030;-86
2022/09/25 04:23:36;;;;;;;30.60;24.00;;;;;;;14.22;100.00;100131.47;4992084;28;20483;-87
2022/09/25 04:26:02;;;;;;;32.50;23.60;;;;;;;14.25;100.00;100120.41;4977581;28;20042;-86
2022/09/25 04:28:30;;;;;;;32.72;23.75;;;;;;;14.43;100.00;100132.25;4977900;28;20030;-88
2022/09/25 04:30:56;;;;;;;30.15;22.83;;;;;;;14.48;100.00;100137.00;4994076;28;20101;-88
2022/09/25 04:36:06;;;;;;;32.38;24.65;;;;;;;14.34;100.00;100125.44;4993316;28;20036;-84
2022/09/25 04:38:32;;;;;;;31.17;24.27;;;;;;;14.27;100.00;100131.69;4994461;28;20117;-86
2022/09/25 04:40:59;;;;;;;34.67;26.08;;;;;;;14.23;100.00;100122.44;4994527;28;20081;-88
2022/09/25 04:43:28;;;;;;;34.15;27.10;;;;;;;14.18;100.00;100116.88;4994611;28;20030;-84
2022/09/25 04:45:53;;;;;;;37.50;28.17;;;;;;;14.14;100.00;100120.94;4993961;28;20369;-85
2022/09/25 04:48:19;;;;;;;37.40;27.63;;;;;;;14.18;100.00;100114.22;4994105;28;20053;-87
2022/09/25 04:50:49;;;;;;;36.65;26.75;;;;;;;14.17;100.00;100115.22;4976166;28;20038;-83
2022/09/25 04:53:15;;;;;;;38.60;27.70;;;;;;;14.14;100.00;100128.94;4994575;28;20038;-87
2022/09/25 04:55:41;;;;;;;34.70;25.60;;;;;;;14.10;100.00;100130.34;4994073;28;20340;-87
2022/09/25 04:58:08;;;;;;;34.20;25.98;;;;;;;14.09;100.00;100131.34;4994123;28;20407;-86
2022/09/25 05:00:35;;;;;;;34.67;24.88;;;;;;;14.20;100.00;100138.81;4995308;28;20026;-89
2022/09/25 05:03:02;;;;;;;34.00;25.73;;;;;;;14.16;100.00;100135.72;4993890;28;20042;-86
2022/09/25 05:05:29;;;;;;;36.08;25.50;;;;;;;14.12;100.00;100131.00;4994399;28;20114;-86
2022/09/25 05:07:57;;;;;;;32.55;24.98;;;;;;;14.24;100.00;100129.44;4995263;28;20053;-84
2022/09/25 05:10:26;;;;;;;33.15;25.05;;;;;;;14.23;100.00;100122.44;5010770;28;20042;-86
2022/09/25 05:12:57;;;;;;;34.35;24.08;;;;;;;14.19;100.00;100115.84;5001545;28;20094;-85
2022/09/25 05:15:22;;;;;;;32.83;24.67;;;;;;;14.19;100.00;100113.19;4976595;28;20061;-86
2022/09/25 05:17:48;;;;;;;33.28;24.58;;;;;;;14.30;100.00;100113.47;4994231;28;20379;-85
2022/09/25 05:20:16;;;;;;;29.73;23.90;;;;;;;14.34;100.00;100117.44;4993825;28;20058;-85
2022/09/25 05:22:41;;;;;;;35.65;25.00;;;;;;;14.31;100.00;100103.63;4994162;28;20058;-83
2022/09/25 05:25:07;;;;;;;32.35;23.85;;;;;;;14.26;100.00;100098.06;4994170;28;20094;-84
2022/09/25 05:27:33;;;;;;;33.97;23.60;;;;;;;14.29;100.00;100089.66;4995165;28;20171;-83
2022/09/25 05:29:59;;;;;;;36.88;25.35;;;;;;;14.26;100.00;100092.72;4994060;28;20126;-84
2022/09/25 05:32:25;;;;;;;37.65;25.65;;;;;;;14.21;100.00;100092.50;4994495;28;20045;-86
2022/09/25 05:38:15;;;;;;;41.00;27.17;;;;;;;14.25;100.00;100093.75;5009731;28;20042;-82
2022/09/25 05:40:40;;;;;;;41.60;27.33;;;;;;;14.32;100.00;100099.94;5004096;28;20097;-83
2022/09/25 05:43:06;;;;;;;37.63;26.25;;;;;;;14.35;100.00;100094.28;5024649;28;20021;-84
2022/09/25 05:45:34;;;;;;;33.42;25.65;;;;;;;14.42;100.00;100105.75;5007553;28;20045;-86
2022/09/25 05:48:07;;;;;;;37.67;27.30;;;;;;;14.45;100.00;100097.38;4987123;28;20510;-85
2022/09/25 05:50:33;;;;;;;34.80;25.17;;;;;;;14.45;100.00;100095.53;5002770;28;20066;-85
2022/09/25 05:53:01;;;;;;;38.53;25.73;;;;;;;14.40;100.00;100097.16;5006731;28;20364;-82
2022/09/25 05:55:28;;;;;;;35.08;25.35;;;;;;;14.43;100.00;100096.75;5004073;28;20026;-83
2022/09/25 05:57:58;;;;;;;37.30;25.30;;;;;;;14.46;100.00;100110.53;5002748;28;20034;-83
2022/09/25 06:00:25;;;;;;;37.33;25.40;;;;;;;14.35;100.00;100108.41;5003210;28;20038;-86
2022/09/25 06:02:51;;;;;;;37.70;25.77;;;;;;;14.39;100.00;100108.81;5010476;28;20028;-92
2022/09/25 06:05:17;;;;;;;35.90;26.00;;;;;;;14.42;100.00;100101.25;5015343;28;20034;-87
2022/09/25 06:07:43;;;;;;;34.58;25.35;;;;;;;14.62;100.00;100101.34;5013505;28;20034;-85
2022/09/25 06:10:09;;;;;;;39.17;26.38;;;;;;;14.59;100.00;100101.75;5015455;28;20053;-86
2022/09/25 06:12:38;;;;;;;38.38;26.17;;;;;;;14.46;100.00;100107.03;4999887;28;20034;-82
2022/09/25 06:15:04;;;;;;;38.05;26.58;;;;;;;14.38;100.00;100107.19;5003062;28;20042;-88
2022/09/25 06:17:30;;;;;;;38.63;26.88;;;;;;;14.36;100.00;100107.38;4995925;28;20037;-88
2022/09/25 06:19:55;;;;;;;43.72;27.45;;;;;;;14.41;100.00;100120.13;4976218;28;20038;-85
2022/09/25 06:22:21;;;;;;;37.88;26.40;;;;;;;14.40;100.00;100121.97;4994369;28;20034;-85
2022/09/25 06:24:47;;;;;;;37.85;27.13;;;;;;;14.33;100.00;100122.91;4988495;28;20102;-85
2022/09/25 06:27:13;;;;;;;40.38;27.88;;;;;;;14.26;100.00;100127.38;4978879;28;20039;-88
2022/09/25 06:29:40;;;;;;;38.05;27.45;;;;;;;14.22;100.00;100120.81;4994470;28;20511;-84
2022/09/25 06:32:06;;;;;;;37.90;27.77;;;;;;;14.19;100.00;100127.34;4995184;28;20038;-87
2022/09/25 06:34:31;;;;;;;44.00;27.80;;;;;;;14.20;100.00;100128.16;4999262;28;20172;-85
2022/09/25 06:36:59;;;;;;;37.47;27.48;;;;;;;14.26;100.00;100119.38;4999661;28;20042;-88
2022/09/25 06:39:25;;;;;;;38.17;26.52;;;;;;;14.31;100.00;100125.78;4966111;28;20045;-86
2022/09/25 06:41:56;;;;;;;40.25;26.00;;;;;;;14.33;100.00;100117.59;4983865;28;20019;-91
2022/09/25 06:44:22;;;;;;;38.50;25.63;;;;;;;14.32;100.00;100121.25;4981917;28;20401;-89
2022/09/25 06:46:50;;;;;;;37.80;25.63;;;;;;;14.25;100.00;100125.75;4988613;28;20045;-87
2022/09/25 06:49:16;;;;;;;35.70;24.85;;;;;;;14.22;100.00;100126.16;4986536;28;20523;-88
2022/09/25 06:51:42;;;;;;;35.25;25.77;;;;;;;14.19;100.00;100126.50;5005154;28;20030;-88
2022/09/25 06:54:10;;;;;;;35.70;24.70;;;;;;;14.17;100.00;100123.22;4974091;28;20169;-87
2022/09/25 06:56:38;;;;;;;37.50;25.05;;;;;;;14.20;100.00;100123.66;5007628;28;20078;-90
2022/09/25 07:04:28;;;;;;;36.50;26.42;;;;;;;14.14;100.00;100120.94;5017607;23;20180;-86
2022/09/25 07:06:57;;;;;;;38.15;26.48;;;;;;;14.17;100.00;100120.56;4973803;28;20063;-88
2022/09/25 07:09:22;;;;;;;39.17;25.63;;;;;;;14.18;100.00;100114.22;4996416;28;20034;-87
2022/09/25 07:11:50;;;;;;;39.28;27.73;;;;;;;14.19;100.00;100134.50;4992604;28;20127;-89
2022/09/25 07:14:19;;;;;;;34.83;25.05;;;;;;;14.22;100.00;100126.16;4991539;28;20027;-87
2022/09/25 07:16:45;;;;;;;37.22;26.77;;;;;;;14.22;100.00;100126.16;4979312;28;20026;-90
2022/09/25 07:19:10;;;;;;;35.13;25.00;;;;;;;14.24;100.00;100126.75;4996934;28;20049;-86
2022/09/25 07:21:36;;;;;;;40.92;26.15;;;;;;;14.27;100.00;100129.03;4978497;28;20511;-88
2022/09/25 07:24:04;;;;;;;36.72;26.27;;;;;;;14.18;100.00;100149.69;4995926;28;20034;-90
2022/09/25 07:26:32;;;;;;;38.42;26.40;;;;;;;14.21;100.00;100151.13;4978793;28;20396;-88
2022/09/25 07:29:02;;;;;;;36.85;26.60;;;;;;;14.18;100.00;100147.03;4996490;28;20057;-87
2022/09/25 07:31:31;;;;;;;58.67;35.55;;;;;;;14.23;100.00;100155.25;4996225;28;20445;-88
2022/09/25 07:34:01;;;;;;;42.78;28.33;;;;;;;14.19;100.00;100153.16;4997182;28;20483;-88
2022/09/25 07:36:27;;;;;;;43.25;28.88;;;;;;;14.16;100.00;100159.72;4977190;28;20030;-88
2022/09/25 07:38:53;;;;;;;43.78;30.10;;;;;;;14.18;100.00;100164.88;4996940;28;20778;-89
2022/09/25 07:41:22;;;;;;;44.05;29.88;;;;;;;14.23;100.00;100163.25;4978210;28;20088;-87
2022/09/25 07:43:56;;;;;;;44.70;30.48;;;;;;;14.27;100.00;100156.53;4977920;28;20038;-87
2022/09/25 07:46:22;;;;;;;39.17;29.48;;;;;;;14.30;100.00;100157.97;4996382;28;20165;-90
2022/09/25 07:48:48;;;;;;;42.33;29.70;;;;;;;14.33;100.00;100160.25;4980622;28;20027;-90
2022/09/25 07:51:14;;;;;;;43.22;29.23;;;;;;;14.31;100.00;100160.44;4997950;28;20484;-88
2022/09/25 07:53:41;;;;;;;43.22;28.55;;;;;;;14.29;100.00;100156.31;5006505;28;20052;-85
2022/09/25 07:56:08;;;;;;;42.00;30.13;;;;;;;14.27;100.00;100155.69;4989683;28;20125;-85
2022/09/25 07:58:34;;;;;;;42.72;29.90;;;;;;;14.30;100.00;100155.31;4978306;28;20035;-86
2022/09/25 08:01:01;;;;;;;42.55;29.00;;;;;;;14.36;100.00;100151.88;4979017;28;20043;-86
2022/09/25 08:03:27;;;;;;;39.08;27.58;;;;;;;14.38;100.00;100156.00;4982512;28;20097;-86
2022/09/25 08:06:10;;;;;;;41.17;28.52;;;;;;;14.40;100.00;100155.81;4977952;28;20043;-87
2022/09/25 08:08:36;;;;;;;;;;;;;;;14.42;100.00;100159.09;4976887;28;20043;-85
2022/09/25 08:11:10;;;;;;;42.90;28.80;;;;;;;14.43;100.00;100155.41;4993739;28;19924;-86
2022/09/25 08:13:37;;;;;;;39.63;28.27;;;;;;;14.47;100.00;100156.69;4993997;28;20061;-86
2022/09/25 08:16:14;;;;;;;39.80;28.05;;;;;;;14.44;100.00;100157.91;4976230;28;20038;-89
2022/09/25 08:18:41;;;;;;;41.60;30.08;;;;;;;14.44;100.00;100152.56;4993062;28;20038;-87
2022/09/25 08:21:08;;;;;;;40.20;28.60;;;;;;;14.56;100.00;100150.16;4993974;28;20082;-88
2022/09/25 08:23:34;;;;;;;38.90;28.60;;;;;;;14.59;100.00;100155.09;4970647;28;20031;-86
2022/09/25 08:26:00;;;;;;;38.08;27.55;;;;;;;14.54;100.00;100146.88;4994374;28;20773;-89
2022/09/25 08:28:27;;;;;;;45.33;28.02;;;;;;;14.57;100.00;100145.66;4970705;28;20062;-89
2022/09/25 08:31:00;;;;;;;39.33;27.50;;;;;;;14.56;100.00;100144.00;4984507;28;20038;-87
2022/09/25 08:33:26;;;;;;;43.50;27.38;;;;;;;14.60;100.00;100139.91;4994703;28;20050;-89
2022/09/25 08:36:04;;;;;;;42.40;30.02;;;;;;;14.68;100.00;100137.91;4977235;28;20070;-85
2022/09/25 08:38:32;;;;;;;47.75;27.20;;;;;;;14.67;100.00;100132.78;4994470;28;20035;-85
2022/09/25 08:41:12;;;;;;;41.00;26.70;;;;;;;14.79;100.00;100136.53;4993828;28;20463;-82
2022/09/25 08:43:59;;;;;;;39.20;27.65;;;;;;;14.81;100.00;100127.31;4995091;28;20089;-83
2022/09/25 08:49:25;;;;;;;40.65;28.70;;;;;;;15.09;100.00;100129.03;4977297;28;20073;-83
2022/09/25 08:51:56;;;;;;;40.53;28.77;;;;;;;15.19;100.00;100134.81;4994502;28;20046;-83
2022/09/25 08:54:27;;;;;;;43.35;27.95;;;;;;;15.10;100.00;100136.03;4994288;28;20082;-87
2022/09/25 08:56:57;;;;;;;43.95;29.58;;;;;;;15.16;100.00;100141.38;4960514;28;20038;-84
2022/09/25 09:00:00;;;;;;;44.00;30.00;;;;;;;15.16;100.00;100143.22;5000989;28;20061;-87
2022/09/25 09:02:56;;;;;;;35.03;26.52;;;;;;;15.00;100.00;100142.56;4994192;28;20487;-85
2022/09/25 09:05:34;;;;;;;40.97;28.20;;;;;;;15.07;100.00;100153.28;4994426;28;20118;-85
2022/09/25 09:08:04;;;;;;;44.17;29.55;;;;;;;15.12;100.00;100144.66;4995642;28;20058;-90
2022/09/25 09:10:42;;;;;;;37.80;28.23;;;;;;;15.10;100.00;100152.03;4979624;28;20034;-84
2022/09/25 09:13:26;;;;;;;34.92;26.27;;;;;;;15.11;100.00;100148.38;4977382;28;20100;-87
2022/09/25 09:15:58;;;;;;;37.17;26.23;;;;;;;15.12;100.00;100156.16;4986265;28;20036;-82
2022/09/25 09:18:27;;;;;;;34.70;26.48;;;;;;;15.11;100.00;100151.03;5015668;28;20061;-88
2022/09/25 09:21:00;;;;;;;40.90;27.42;;;;;;;15.08;100.00;100148.78;4978694;28;20072;-81
2022/09/25 09:23:39;;;;;;;40.20;27.38;;;;;;;15.12;100.00;100152.66;4995158;28;20034;-86
2022/09/25 09:26:49;;;;;;;37.88;26.60;;;;;;;15.13;100.00;100147.13;4978499;28;20042;-86
2022/09/25 09:29:37;;;;;;;37.83;25.75;;;;;;;15.09;100.00;100150.38;4952846;28;20082;-85
2022/09/25 09:32:27;;;;;;;40.72;26.13;;;;;;;15.12;100.00;100145.47;4996133;28;20039;-87
2022/09/25 09:34:58;;;;;;;35.67;24.15;;;;;;;15.34;100.00;100146.16;4995378;28;20093;-86
2022/09/25 09:37:42;;;;;;;35.60;25.63;;;;;;;15.57;100.00;100149.31;4994428;28;20045;-84
2022/09/25 09:40:23;;;;;;;41.28;25.75;;;;;;;15.75;100.00;100141.53;4981033;28;20091;-87
2022/09/25 09:43:30;;;;;;;33.15;23.80;;;;;;;15.74;100.00;100139.88;4996120;28;20040;-89
2022/09/25 09:46:07;;;;;;;40.35;24.58;;;;;;;15.73;100.00;100135.56;4977116;28;20443;-88
2022/09/25 09:48:42;;;;;;;31.27;21.08;;;;;;;15.75;100.00;100149.53;5006683;28;20108;-88
2022/09/25 09:51:20;;;;;;;49.80;26.13;;;;;;;15.83;100.00;100148.53;4995996;28;20061;-89
2022/09/25 09:53:45;;;;;;;39.75;23.77;;;;;;;15.79;100.00;100137.41;5022969;28;20030;-88
2022/09/25 09:56:23;;;;;;;33.67;23.27;;;;;;;15.78;100.00;100137.63;4999156;28;20671;-86
2022/09/25 09:59:11;;;;;;;26.85;20.95;;;;;;;15.76;100.00;100132.50;5001607;28;20057;-87
2022/09/25 10:01:41;;;;;;;28.05;20.85;;;;;;;15.79;100.00;100134.75;5017454;28;20096;-88
2022/09/25 10:04:14;;;;;;;29.25;21.10;;;;;;;15.87;100.00;100129.22;4975997;28;20058;-88
2022/09/25 10:06:52;;;;;;;28.13;19.80;;;;;;;15.83;100.00;100132.50;5009382;28;20025;-87
2022/09/25 10:09:18;;;;;;;32.15;20.38;;;;;;;15.90;100.00;100123.44;5008356;28;20121;-88
2022/09/25 10:11:51;;;;;;;27.58;20.13;;;;;;;15.90;100.00;100131.47;4976808;28;20118;-89
2022/09/25 10:14:21;;;;;;;28.63;21.20;;;;;;;16.01;100.00;100125.47;4981783;28;20101;-89
2022/09/25 10:16:49;;;;;;;25.80;20.50;;;;;;;16.29;100.00;100116.41;4998902;28;20125;-88
2022/09/25 10:19:22;;;;;;;27.77;20.55;;;;;;;16.12;100.00;100115.19;5004408;28;20472;-86
2022/09/25 10:22:11;;;;;;;30.30;20.25;;;;;;;16.29;100.00;100116.41;5013756;28;20176;-85
2022/09/25 10:24:57;;;;;;;25.95;19.75;;;;;;;16.28;100.00;100117.44;5002481;28;20045;-91
2022/09/25 10:27:46;;;;;;;28.02;19.98;;;;;;;16.08;100.00;100116.63;5000445;28;20041;-88
2022/09/25 10:30:17;;;;;;;24.20;19.02;;;;;;;16.14;100.00;100121.16;4997716;28;20053;-88
2022/09/25 10:32:59;;;;;;;24.88;19.63;;;;;;;16.21;100.00;100113.94;4980430;28;20102;-88
2022/09/25 10:35:42;;;;;;;26.45;18.98;;;;;;;16.27;100.00;100113.13;4980212;28;20034;-87
2022/09/25 10:38:32;;;;;;;25.17;19.10;;;;;;;16.43;100.00;100118.03;4999336;28;20031;-89
2022/09/25 10:41:11;;;;;;;26.70;18.48;;;;;;;16.50;100.00;100110.81;5005460;28;20070;-90
2022/09/25 10:43:51;;;;;;;27.50;19.83;;;;;;;16.59;100.00;100116.78;4981949;28;20069;-87
2022/09/25 10:50:09;;;;;;;24.35;18.63;;;;;;;16.51;100.00;100117.78;4997364;28;20054;-88
2022/09/25 10:52:08;;;;;;;;;;;;;;;16.33;100.00;100117.63;4986022;28;20407;-87
2022/09/25 10:54:35;;;;;;;25.30;17.83;;;;;;;16.39;100.00;100114.13;4982907;28;20442;-92
2022/09/25 10:57:16;;;;;;;29.27;19.45;;;;;;;16.38;100.00;100117.81;4967604;28;20084;-88
2022/09/25 10:59:50;;;;;;;29.13;19.50;;;;;;;16.51;100.00;100120.47;5000422;28;20034;-90
2022/09/25 11:02:34;;;;;;;26.20;18.67;;;;;;;16.52;100.00;100124.78;4988025;28;20030;-89
2022/09/25 11:05:00;;;;;;;28.15;19.55;;;;;;;16.40;100.00;100123.78;5006905;28;20042;-89
2022/09/25 11:07:27;;;;;;;26.02;19.75;;;;;;;16.24;100.00;100129.59;5014293;28;20026;-88
2022/09/25 11:09:53;;;;;;;26.58;18.90;;;;;;;16.18;100.00;100125.06;4984704;28;20030;-87
2022/09/25 11:12:24;;;;;;;24.67;18.20;;;;;;;16.35;100.00;100126.25;4998519;28;20034;-90
2022/09/25 11:15:00;;;;;;;21.55;16.90;;;;;;;16.44;100.00;100130.34;4997693;28;20034;-91
2022/09/25 11:17:50;;;;;;;25.42;17.95;;;;;;;16.51;100.00;100128.47;4985995;28;20081;-91
2022/09/25 11:20:26;;;;;;;23.20;17.40;;;;;;;16.66;100.00;100118.41;4987094;28;20057;-92
2022/09/25 11:23:02;;;;;;;21.30;16.55;;;;;;;16.56;100.00;100114.53;4993031;28;20038;-92
2022/09/25 11:25:46;;;;;;;24.52;17.88;;;;;;;16.53;100.00;100107.72;5005186;28;20061;-89
2022/09/25 11:28:36;;;;;;;22.52;16.45;;;;;;;16.75;100.00;100106.41;4973935;28;20038;-89
2022/09/25 11:31:25;;;;;;;19.88;15.80;;;;;;;16.90;100.00;100104.28;4996719;28;20053;-90
2022/09/25 11:34:16;;;;;;;26.02;17.30;;;;;;;16.89;100.00;100099.97;5002952;28;20069;-90
2022/09/25 11:37:04;;;;;;;22.65;17.25;;;;;;;16.93;100.00;100101.22;5006332;28;20064;-90
2022/09/25 11:43:07;;;;;;;27.73;17.45;;;;;;;16.83;100.00;100092.81;4984824;28;20046;-88
2022/09/25 11:45:50;;;;;;;28.10;19.65;;;;;;;16.77;100.00;100082.94;4983988;28;20042;-89
2022/09/25 11:48:41;;;;;;;27.25;18.55;;;;;;;16.88;100.00;100090.31;4967060;28;20118;-89
2022/09/25 11:51:54;;;;;;;22.60;16.48;;;;;;;16.82;100.00;100085.81;5005741;28;20042;-91
2022/09/25 11:54:48;;;;;;;26.20;16.35;;;;;;;16.80;100.00;100079.84;4961644;28;20506;-88
2022/09/25 11:57:35;;;;;;;22.98;16.23;;;;;;;17.00;100.00;100082.44;4982782;28;20041;-90